sensor_id;sensor_type;location;lat;lon;timestamp;P1;durP1;ratioP1;P2;durP2;ratioP2
22160;SDS011;49035;48.812;11.762;2023-04-25T00:02:25;4.73;;;3.17;;
22160;SDS011;49035;48.812;11.762;2023-04-25T00:04:50;5.97;;;3.50;;
22160;SDS011;49035;48.812;11.762;2023-04-25T00:07:17;4.13;;;3.37;;
22160;SDS011;49035;48.812;11.762;2023-04-25T00:09:42;5.30;;;4.13;;
22160;SDS011;49035;48.812;11.762;2023-04-25T00:12:08;3.83;;;3.10;;
22160;SDS011;49035;48.812;11.762;2023-04-25T00:14:34;3.83;;;3.40;;
22160;SDS011;49035;48.812;11.762;2023-04-25T00:17:00;5.13;;;3.27;;
22160;SDS011;49035;48.812;11.762;2023-04-25T00:19:26;4.53;;;3.27;;
22160;SDS011;49035;48.812;11.762;2023-04-25T00:21:53;3.17;;;2.87;;
22160;SDS011;49035;48.812;11.762;2023-04-25T00:24:19;4.00;;;3.27;;
22160;SDS011;49035;48.812;11.762;2023-04-25T00:26:45;5.00;;;3.80;;
22160;SDS011;49035;48.812;11.762;2023-04-25T00:29:10;6.47;;;3.27;;
22160;SDS011;49035;48.812;11.762;2023-04-25T00:31:36;4.13;;;3.53;;
22160;SDS011;49035;48.812;11.762;2023-04-25T00:34:02;6.07;;;3.30;;
22160;SDS011;49035;48.812;11.762;2023-04-25T00:36:27;5.97;;;3.67;;
22160;SDS011;49035;48.812;11.762;2023-04-25T00:38:53;6.70;;;3.93;;
22160;SDS011;49035;48.812;11.762;2023-04-25T00:41:20;5.10;;;4.07;;
22160;SDS011;49035;48.812;11.762;2023-04-25T00:43:45;9.33;;;3.97;;
22160;SDS011;49035;48.812;11.762;2023-04-25T00:46:12;5.57;;;3.97;;
22160;SDS011;49035;48.812;11.762;2023-04-25T00:48:38;4.70;;;3.93;;
22160;SDS011;49035;48.812;11.762;2023-04-25T00:51:03;4.73;;;3.73;;
22160;SDS011;49035;48.812;11.762;2023-04-25T00:53:29;4.87;;;3.57;;
22160;SDS011;49035;48.812;11.762;2023-04-25T00:55:57;5.37;;;3.70;;
22160;SDS011;49035;48.812;11.762;2023-04-25T00:58:23;4.80;;;3.67;;
22160;SDS011;49035;48.812;11.762;2023-04-25T01:00:49;5.53;;;3.47;;
22160;SDS011;49035;48.812;11.762;2023-04-25T01:03:19;4.70;;;3.70;;
22160;SDS011;49035;48.812;11.762;2023-04-25T01:05:45;5.10;;;3.27;;
22160;SDS011;49035;48.812;11.762;2023-04-25T01:08:12;6.60;;;3.53;;
22160;SDS011;49035;48.812;11.762;2023-04-25T01:10:38;5.23;;;3.70;;
22160;SDS011;49035;48.812;11.762;2023-04-25T01:13:03;6.80;;;4.40;;
22160;SDS011;49035;48.812;11.762;2023-04-25T01:15:30;5.73;;;4.00;;
22160;SDS011;49035;48.812;11.762;2023-04-25T01:17:55;4.20;;;3.43;;
22160;SDS011;49035;48.812;11.762;2023-04-25T01:20:22;5.40;;;3.63;;
22160;SDS011;49035;48.812;11.762;2023-04-25T01:22:49;4.27;;;3.70;;
22160;SDS011;49035;48.812;11.762;2023-04-25T01:25:16;6.50;;;4.30;;
22160;SDS011;49035;48.812;11.762;2023-04-25T01:27:42;4.80;;;4.03;;
22160;SDS011;49035;48.812;11.762;2023-04-25T01:30:08;7.27;;;4.40;;
22160;SDS011;49035;48.812;11.762;2023-04-25T01:32:34;6.90;;;3.80;;
22160;SDS011;49035;48.812;11.762;2023-04-25T01:35:07;6.23;;;4.17;;
22160;SDS011;49035;48.812;11.762;2023-04-25T01:37:35;5.60;;;4.00;;
22160;SDS011;49035;48.812;11.762;2023-04-25T01:40:04;5.90;;;4.40;;
22160;SDS011;49035;48.812;11.762;2023-04-25T01:42:32;5.53;;;4.33;;
22160;SDS011;49035;48.812;11.762;2023-04-25T01:44:58;6.00;;;4.00;;
22160;SDS011;49035;48.812;11.762;2023-04-25T01:47:24;6.57;;;4.23;;
22160;SDS011;49035;48.812;11.762;2023-04-25T01:49:50;6.47;;;4.03;;
22160;SDS011;49035;48.812;11.762;2023-04-25T01:52:16;6.27;;;4.30;;
22160;SDS011;49035;48.812;11.762;2023-04-25T01:54:41;6.40;;;3.97;;
22160;SDS011;49035;48.812;11.762;2023-04-25T01:57:09;4.43;;;3.93;;
22160;SDS011;49035;48.812;11.762;2023-04-25T01:59:36;5.00;;;4.10;;
22160;SDS011;49035;48.812;11.762;2023-04-25T02:02:02;6.60;;;4.00;;
22160;SDS011;49035;48.812;11.762;2023-04-25T02:04:29;5.17;;;3.73;;
22160;SDS011;49035;48.812;11.762;2023-04-25T02:06:55;5.37;;;4.17;;
22160;SDS011;49035;48.812;11.762;2023-04-25T02:09:20;5.03;;;3.87;;
22160;SDS011;49035;48.812;11.762;2023-04-25T02:11:46;3.93;;;3.53;;
22160;SDS011;49035;48.812;11.762;2023-04-25T02:14:11;6.40;;;4.43;;
22160;SDS011;49035;48.812;11.762;2023-04-25T02:16:37;5.70;;;3.70;;
22160;SDS011;49035;48.812;11.762;2023-04-25T02:19:04;5.47;;;3.90;;
22160;SDS011;49035;48.812;11.762;2023-04-25T02:21:30;4.67;;;3.70;;
22160;SDS011;49035;48.812;11.762;2023-04-25T02:23:56;4.90;;;3.80;;
22160;SDS011;49035;48.812;11.762;2023-04-25T02:26:22;3.63;;;3.23;;
22160;SDS011;49035;48.812;11.762;2023-04-25T02:28:48;5.70;;;3.73;;
22160;SDS011;49035;48.812;11.762;2023-04-25T02:31:14;4.17;;;3.50;;
22160;SDS011;49035;48.812;11.762;2023-04-25T02:33:40;4.47;;;3.57;;
22160;SDS011;49035;48.812;11.762;2023-04-25T02:36:06;4.97;;;3.50;;
22160;SDS011;49035;48.812;11.762;2023-04-25T02:38:32;5.27;;;3.27;;
22160;SDS011;49035;48.812;11.762;2023-04-25T02:40:57;5.93;;;3.73;;
22160;SDS011;49035;48.812;11.762;2023-04-25T02:43:23;7.27;;;4.20;;
22160;SDS011;49035;48.812;11.762;2023-04-25T02:45:48;5.77;;;3.80;;
22160;SDS011;49035;48.812;11.762;2023-04-25T02:48:14;6.37;;;3.77;;
22160;SDS011;49035;48.812;11.762;2023-04-25T02:50:40;6.63;;;3.80;;
22160;SDS011;49035;48.812;11.762;2023-04-25T02:53:05;4.27;;;3.50;;
22160;SDS011;49035;48.812;11.762;2023-04-25T02:55:31;6.90;;;3.70;;
22160;SDS011;49035;48.812;11.762;2023-04-25T02:57:56;5.63;;;3.53;;
22160;SDS011;49035;48.812;11.762;2023-04-25T03:00:22;4.30;;;3.90;;
22160;SDS011;49035;48.812;11.762;2023-04-25T03:02:47;4.13;;;3.53;;
22160;SDS011;49035;48.812;11.762;2023-04-25T03:05:13;5.27;;;3.70;;
22160;SDS011;49035;48.812;11.762;2023-04-25T03:07:39;5.43;;;3.87;;
22160;SDS011;49035;48.812;11.762;2023-04-25T03:10:07;5.30;;;4.07;;
22160;SDS011;49035;48.812;11.762;2023-04-25T03:12:33;5.53;;;3.60;;
22160;SDS011;49035;48.812;11.762;2023-04-25T03:14:59;6.53;;;3.80;;
22160;SDS011;49035;48.812;11.762;2023-04-25T03:17:24;5.20;;;3.97;;
22160;SDS011;49035;48.812;11.762;2023-04-25T03:19:50;5.80;;;3.30;;
22160;SDS011;49035;48.812;11.762;2023-04-25T03:22:15;4.80;;;3.20;;
22160;SDS011;49035;48.812;11.762;2023-04-25T03:24:41;4.77;;;3.00;;
22160;SDS011;49035;48.812;11.762;2023-04-25T03:27:07;4.77;;;3.73;;
22160;SDS011;49035;48.812;11.762;2023-04-25T03:29:32;4.73;;;3.80;;
22160;SDS011;49035;48.812;11.762;2023-04-25T03:31:58;6.23;;;3.70;;
22160;SDS011;49035;48.812;11.762;2023-04-25T03:34:24;6.37;;;4.03;;
22160;SDS011;49035;48.812;11.762;2023-04-25T03:36:50;4.53;;;3.60;;
22160;SDS011;49035;48.812;11.762;2023-04-25T03:39:16;5.43;;;3.73;;
22160;SDS011;49035;48.812;11.762;2023-04-25T03:41:42;8.03;;;3.40;;
22160;SDS011;49035;48.812;11.762;2023-04-25T03:44:07;5.00;;;3.77;;
22160;SDS011;49035;48.812;11.762;2023-04-25T03:46:33;5.77;;;4.20;;
22160;SDS011;49035;48.812;11.762;2023-04-25T03:48:58;4.73;;;3.80;;
22160;SDS011;49035;48.812;11.762;2023-04-25T03:51:24;6.60;;;3.57;;
22160;SDS011;49035;48.812;11.762;2023-04-25T03:53:51;5.17;;;4.07;;
22160;SDS011;49035;48.812;11.762;2023-04-25T03:56:16;5.60;;;3.60;;
22160;SDS011;49035;48.812;11.762;2023-04-25T03:58:42;5.80;;;3.73;;
22160;SDS011;49035;48.812;11.762;2023-04-25T04:01:08;8.77;;;3.73;;
22160;SDS011;49035;48.812;11.762;2023-04-25T04:03:34;5.07;;;3.73;;
22160;SDS011;49035;48.812;11.762;2023-04-25T04:06:01;7.00;;;4.33;;
22160;SDS011;49035;48.812;11.762;2023-04-25T04:08:28;4.60;;;3.60;;
22160;SDS011;49035;48.812;11.762;2023-04-25T04:10:55;7.43;;;4.33;;
22160;SDS011;49035;48.812;11.762;2023-04-25T04:13:21;5.50;;;3.70;;
22160;SDS011;49035;48.812;11.762;2023-04-25T04:15:47;6.83;;;4.57;;
22160;SDS011;49035;48.812;11.762;2023-04-25T04:18:12;9.30;;;4.67;;
22160;SDS011;49035;48.812;11.762;2023-04-25T04:20:38;6.83;;;4.43;;
22160;SDS011;49035;48.812;11.762;2023-04-25T04:23:04;6.93;;;4.70;;
22160;SDS011;49035;48.812;11.762;2023-04-25T04:25:35;6.27;;;4.30;;
22160;SDS011;49035;48.812;11.762;2023-04-25T04:28:02;8.97;;;4.73;;
22160;SDS011;49035;48.812;11.762;2023-04-25T04:30:28;8.87;;;4.33;;
22160;SDS011;49035;48.812;11.762;2023-04-25T04:32:55;5.77;;;4.40;;
22160;SDS011;49035;48.812;11.762;2023-04-25T04:35:24;5.77;;;4.13;;
22160;SDS011;49035;48.812;11.762;2023-04-25T04:37:50;7.50;;;4.33;;
22160;SDS011;49035;48.812;11.762;2023-04-25T04:40:31;5.73;;;4.63;;
22160;SDS011;49035;48.812;11.762;2023-04-25T04:43:06;5.43;;;3.97;;
22160;SDS011;49035;48.812;11.762;2023-04-25T04:45:35;6.97;;;4.60;;
22160;SDS011;49035;48.812;11.762;2023-04-25T04:48:05;7.67;;;4.47;;
22160;SDS011;49035;48.812;11.762;2023-04-25T04:50:31;6.87;;;4.30;;
22160;SDS011;49035;48.812;11.762;2023-04-25T04:53:01;7.70;;;5.20;;
22160;SDS011;49035;48.812;11.762;2023-04-25T04:55:27;6.83;;;4.73;;
22160;SDS011;49035;48.812;11.762;2023-04-25T04:57:53;5.67;;;4.73;;
22160;SDS011;49035;48.812;11.762;2023-04-25T05:00:29;6.20;;;4.60;;
22160;SDS011;49035;48.812;11.762;2023-04-25T05:02:57;10.33;;;4.70;;
22160;SDS011;49035;48.812;11.762;2023-04-25T05:05:24;6.83;;;5.17;;
22160;SDS011;49035;48.812;11.762;2023-04-25T05:07:50;5.40;;;4.50;;
22160;SDS011;49035;48.812;11.762;2023-04-25T05:10:19;5.50;;;4.13;;
22160;SDS011;49035;48.812;11.762;2023-04-25T05:12:52;7.10;;;4.80;;
22160;SDS011;49035;48.812;11.762;2023-04-25T05:15:18;7.87;;;4.80;;
22160;SDS011;49035;48.812;11.762;2023-04-25T05:17:53;7.03;;;4.53;;
22160;SDS011;49035;48.812;11.762;2023-04-25T05:20:19;6.43;;;4.80;;
22160;SDS011;49035;48.812;11.762;2023-04-25T05:25:45;5.40;;;3.20;;
22160;SDS011;49035;48.812;11.762;2023-04-25T05:28:12;4.23;;;3.50;;
22160;SDS011;49035;48.812;11.762;2023-04-25T05:30:37;4.50;;;3.40;;
22160;SDS011;49035;48.812;11.762;2023-04-25T05:33:03;5.47;;;3.10;;
22160;SDS011;49035;48.812;11.762;2023-04-25T05:35:29;3.30;;;2.90;;
22160;SDS011;49035;48.812;11.762;2023-04-25T05:37:55;4.80;;;3.53;;
22160;SDS011;49035;48.812;11.762;2023-04-25T05:40:20;4.45;;;3.00;;
22160;SDS011;49035;48.812;11.762;2023-04-25T05:42:46;5.13;;;3.50;;
22160;SDS011;49035;48.812;11.762;2023-04-25T05:45:11;8.88;;;3.55;;
22160;SDS011;49035;48.812;11.762;2023-04-25T05:47:37;5.68;;;3.40;;
22160;SDS011;49035;48.812;11.762;2023-04-25T05:50:03;3.78;;;2.80;;
22160;SDS011;49035;48.812;11.762;2023-04-25T05:52:29;4.63;;;3.30;;
22160;SDS011;49035;48.812;11.762;2023-04-25T05:54:55;3.95;;;3.17;;
22160;SDS011;49035;48.812;11.762;2023-04-25T05:57:21;4.80;;;3.70;;
22160;SDS011;49035;48.812;11.762;2023-04-25T05:59:51;3.42;;;3.13;;
22160;SDS011;49035;48.812;11.762;2023-04-25T06:02:18;4.03;;;3.28;;
22160;SDS011;49035;48.812;11.762;2023-04-25T06:04:45;4.25;;;2.78;;
22160;SDS011;49035;48.812;11.762;2023-04-25T06:07:11;4.00;;;3.20;;
22160;SDS011;49035;48.812;11.762;2023-04-25T06:09:36;5.25;;;3.22;;
22160;SDS011;49035;48.812;11.762;2023-04-25T06:12:04;5.22;;;3.22;;
22160;SDS011;49035;48.812;11.762;2023-04-25T06:14:30;4.40;;;3.13;;
22160;SDS011;49035;48.812;11.762;2023-04-25T06:16:56;8.43;;;3.35;;
22160;SDS011;49035;48.812;11.762;2023-04-25T06:19:21;4.95;;;3.55;;
22160;SDS011;49035;48.812;11.762;2023-04-25T06:21:47;4.88;;;3.30;;
22160;SDS011;49035;48.812;11.762;2023-04-25T06:24:12;5.47;;;3.55;;
22160;SDS011;49035;48.812;11.762;2023-04-25T06:26:38;4.95;;;3.22;;
22160;SDS011;49035;48.812;11.762;2023-04-25T06:29:04;6.72;;;3.38;;
22160;SDS011;49035;48.812;11.762;2023-04-25T06:31:29;4.43;;;2.90;;
22160;SDS011;49035;48.812;11.762;2023-04-25T06:33:57;5.60;;;3.20;;
22160;SDS011;49035;48.812;11.762;2023-04-25T06:36:23;7.40;;;3.55;;
22160;SDS011;49035;48.812;11.762;2023-04-25T06:38:53;3.97;;;2.95;;
22160;SDS011;49035;48.812;11.762;2023-04-25T06:41:19;4.07;;;3.10;;
22160;SDS011;49035;48.812;11.762;2023-04-25T06:43:45;4.95;;;3.45;;
22160;SDS011;49035;48.812;11.762;2023-04-25T06:46:11;5.68;;;3.40;;
22160;SDS011;49035;48.812;11.762;2023-04-25T06:48:37;6.97;;;3.35;;
22160;SDS011;49035;48.812;11.762;2023-04-25T06:51:02;3.10;;;2.80;;
22160;SDS011;49035;48.812;11.762;2023-04-25T06:53:28;3.55;;;3.15;;
22160;SDS011;49035;48.812;11.762;2023-04-25T06:55:53;3.85;;;3.40;;
22160;SDS011;49035;48.812;11.762;2023-04-25T06:58:19;5.65;;;3.20;;
22160;SDS011;49035;48.812;11.762;2023-04-25T07:00:45;3.88;;;3.20;;
22160;SDS011;49035;48.812;11.762;2023-04-25T07:03:10;7.80;;;3.47;;
22160;SDS011;49035;48.812;11.762;2023-04-25T07:05:36;3.55;;;3.10;;
22160;SDS011;49035;48.812;11.762;2023-04-25T07:08:02;3.75;;;3.10;;
22160;SDS011;49035;48.812;11.762;2023-04-25T07:10:28;4.07;;;2.83;;
22160;SDS011;49035;48.812;11.762;2023-04-25T07:12:53;4.13;;;3.38;;
22160;SDS011;49035;48.812;11.762;2023-04-25T07:15:19;7.32;;;3.33;;
22160;SDS011;49035;48.812;11.762;2023-04-25T07:17:44;5.28;;;3.47;;
22160;SDS011;49035;48.812;11.762;2023-04-25T07:20:11;3.80;;;2.92;;
22160;SDS011;49035;48.812;11.762;2023-04-25T07:22:37;5.07;;;3.90;;
22160;SDS011;49035;48.812;11.762;2023-04-25T07:25:02;5.65;;;3.40;;
22160;SDS011;49035;48.812;11.762;2023-04-25T07:27:29;4.95;;;3.75;;
22160;SDS011;49035;48.812;11.762;2023-04-25T07:29:55;5.93;;;3.80;;
22160;SDS011;49035;48.812;11.762;2023-04-25T07:32:20;6.43;;;3.58;;
22160;SDS011;49035;48.812;11.762;2023-04-25T07:34:46;5.50;;;3.80;;
22160;SDS011;49035;48.812;11.762;2023-04-25T07:37:13;7.53;;;3.78;;
22160;SDS011;49035;48.812;11.762;2023-04-25T07:39:39;7.18;;;3.85;;
22160;SDS011;49035;48.812;11.762;2023-04-25T07:42:05;4.38;;;3.58;;
22160;SDS011;49035;48.812;11.762;2023-04-25T07:44:33;5.07;;;3.75;;
22160;SDS011;49035;48.812;11.762;2023-04-25T07:47:03;5.15;;;3.63;;
22160;SDS011;49035;48.812;11.762;2023-04-25T07:49:31;4.47;;;3.33;;
22160;SDS011;49035;48.812;11.762;2023-04-25T07:52:01;5.55;;;3.45;;
22160;SDS011;49035;48.812;11.762;2023-04-25T07:54:27;4.38;;;3.58;;
22160;SDS011;49035;48.812;11.762;2023-04-25T07:56:53;4.03;;;3.30;;
22160;SDS011;49035;48.812;11.762;2023-04-25T07:59:19;6.68;;;3.45;;
22160;SDS011;49035;48.812;11.762;2023-04-25T08:01:44;7.80;;;3.67;;
22160;SDS011;49035;48.812;11.762;2023-04-25T08:04:10;5.35;;;3.47;;
22160;SDS011;49035;48.812;11.762;2023-04-25T08:06:36;6.72;;;3.38;;
22160;SDS011;49035;48.812;11.762;2023-04-25T08:09:02;5.40;;;3.40;;
22160;SDS011;49035;48.812;11.762;2023-04-25T08:11:28;4.25;;;3.20;;
22160;SDS011;49035;48.812;11.762;2023-04-25T08:13:53;5.78;;;3.20;;
22160;SDS011;49035;48.812;11.762;2023-04-25T08:16:19;5.18;;;3.22;;
22160;SDS011;49035;48.812;11.762;2023-04-25T08:18:44;4.90;;;3.05;;
22160;SDS011;49035;48.812;11.762;2023-04-25T08:21:10;3.85;;;2.95;;
22160;SDS011;49035;48.812;11.762;2023-04-25T08:23:36;4.10;;;3.00;;
22160;SDS011;49035;48.812;11.762;2023-04-25T08:26:02;3.50;;;2.88;;
22160;SDS011;49035;48.812;11.762;2023-04-25T08:28:29;2.45;;;2.25;;
22160;SDS011;49035;48.812;11.762;2023-04-25T08:30:55;3.53;;;2.60;;
22160;SDS011;49035;48.812;11.762;2023-04-25T08:33:21;4.03;;;2.40;;
22160;SDS011;49035;48.812;11.762;2023-04-25T08:35:46;3.88;;;2.90;;
22160;SDS011;49035;48.812;11.762;2023-04-25T08:38:12;3.00;;;2.60;;
22160;SDS011;49035;48.812;11.762;2023-04-25T08:40:38;4.05;;;2.80;;
22160;SDS011;49035;48.812;11.762;2023-04-25T08:43:05;3.47;;;2.80;;
22160;SDS011;49035;48.812;11.762;2023-04-25T08:45:36;5.05;;;2.78;;
22160;SDS011;49035;48.812;11.762;2023-04-25T08:48:06;5.95;;;3.00;;
22160;SDS011;49035;48.812;11.762;2023-04-25T08:50:37;10.18;;;3.00;;
22160;SDS011;49035;48.812;11.762;2023-04-25T08:53:21;4.13;;;3.13;;
22160;SDS011;49035;48.812;11.762;2023-04-25T08:55:50;6.18;;;3.15;;
22160;SDS011;49035;48.812;11.762;2023-04-25T08:58:17;4.35;;;3.30;;
22160;SDS011;49035;48.812;11.762;2023-04-25T09:00:43;4.65;;;2.80;;
22160;SDS011;49035;48.812;11.762;2023-04-25T09:03:11;3.53;;;2.80;;
22160;SDS011;49035;48.812;11.762;2023-04-25T09:05:36;5.38;;;2.65;;
22160;SDS011;49035;48.812;11.762;2023-04-25T09:08:02;5.32;;;2.72;;
22160;SDS011;49035;48.812;11.762;2023-04-25T09:10:28;3.17;;;2.60;;
22160;SDS011;49035;48.812;11.762;2023-04-25T09:13:06;3.80;;;2.88;;
22160;SDS011;49035;48.812;11.762;2023-04-25T09:15:38;6.07;;;2.70;;
22160;SDS011;49035;48.812;11.762;2023-04-25T09:20:49;3.95;;;2.50;;
22160;SDS011;49035;48.812;11.762;2023-04-25T09:23:14;3.60;;;2.70;;
22160;SDS011;49035;48.812;11.762;2023-04-25T09:25:40;4.25;;;2.65;;
22160;SDS011;49035;48.812;11.762;2023-04-25T09:28:08;3.40;;;2.53;;
22160;SDS011;49035;48.812;11.762;2023-04-25T09:30:35;4.95;;;3.13;;
22160;SDS011;49035;48.812;11.762;2023-04-25T09:33:05;5.57;;;2.85;;
22160;SDS011;49035;48.812;11.762;2023-04-25T09:35:38;5.07;;;2.38;;
22160;SDS011;49035;48.812;11.762;2023-04-25T09:38:09;3.97;;;2.20;;
22160;SDS011;49035;48.812;11.762;2023-04-25T09:40:40;3.17;;;1.83;;
22160;SDS011;49035;48.812;11.762;2023-04-25T09:43:25;1.70;;;1.40;;
22160;SDS011;49035;48.812;11.762;2023-04-25T09:45:51;1.70;;;1.60;;
22160;SDS011;49035;48.812;11.762;2023-04-25T09:48:21;1.30;;;1.20;;
22160;SDS011;49035;48.812;11.762;2023-04-25T09:53:28;1.57;;;1.30;;
22160;SDS011;49035;48.812;11.762;2023-04-25T09:55:54;0.90;;;0.90;;
22160;SDS011;49035;48.812;11.762;2023-04-25T09:58:21;1.07;;;0.97;;
22160;SDS011;49035;48.812;11.762;2023-04-25T10:00:49;1.23;;;1.13;;
22160;SDS011;49035;48.812;11.762;2023-04-25T10:03:17;1.37;;;1.20;;
22160;SDS011;49035;48.812;11.762;2023-04-25T10:05:45;1.57;;;1.47;;
22160;SDS011;49035;48.812;11.762;2023-04-25T10:08:12;2.80;;;2.20;;
22160;SDS011;49035;48.812;11.762;2023-04-25T10:10:39;2.67;;;2.23;;
22160;SDS011;49035;48.812;11.762;2023-04-25T10:13:06;4.13;;;2.30;;
22160;SDS011;49035;48.812;11.762;2023-04-25T10:15:34;4.20;;;2.73;;
22160;SDS011;49035;48.812;11.762;2023-04-25T10:18:01;3.33;;;3.03;;
22160;SDS011;49035;48.812;11.762;2023-04-25T10:20:27;4.40;;;3.17;;
22160;SDS011;49035;48.812;11.762;2023-04-25T10:22:54;3.90;;;3.00;;
22160;SDS011;49035;48.812;11.762;2023-04-25T10:25:23;4.13;;;2.67;;
22160;SDS011;49035;48.812;11.762;2023-04-25T10:27:52;3.30;;;2.55;;
22160;SDS011;49035;48.812;11.762;2023-04-25T10:30:18;4.07;;;3.03;;
22160;SDS011;49035;48.812;11.762;2023-04-25T10:32:44;4.03;;;3.20;;
22160;SDS011;49035;48.812;11.762;2023-04-25T10:35:16;4.57;;;3.13;;
22160;SDS011;49035;48.812;11.762;2023-04-25T10:40:31;4.37;;;3.67;;
22160;SDS011;49035;48.812;11.762;2023-04-25T10:48:54;4.20;;;3.20;;
22160;SDS011;49035;48.812;11.762;2023-04-25T10:54:06;4.30;;;2.80;;
22160;SDS011;49035;48.812;11.762;2023-04-25T10:56:37;2.60;;;2.40;;
22160;SDS011;49035;48.812;11.762;2023-04-25T10:59:12;2.80;;;2.20;;
22160;SDS011;49035;48.812;11.762;2023-04-25T11:04:30;2.15;;;1.80;;
22160;SDS011;49035;48.812;11.762;2023-04-25T11:09:37;2.78;;;2.47;;
22160;SDS011;49035;48.812;11.762;2023-04-25T11:12:06;2.92;;;2.00;;
22160;SDS011;49035;48.812;11.762;2023-04-25T11:14:32;4.28;;;2.45;;
22160;SDS011;49035;48.812;11.762;2023-04-25T11:16:58;3.65;;;3.08;;
22160;SDS011;49035;48.812;11.762;2023-04-25T11:19:25;2.58;;;2.28;;
22160;SDS011;49035;48.812;11.762;2023-04-25T11:22:00;3.85;;;2.80;;
22160;SDS011;49035;48.812;11.762;2023-04-25T11:24:31;4.90;;;3.15;;
22160;SDS011;49035;48.812;11.762;2023-04-25T11:26:59;4.72;;;2.95;;
22160;SDS011;49035;48.812;11.762;2023-04-25T11:29:29;4.20;;;2.88;;
22160;SDS011;49035;48.812;11.762;2023-04-25T11:31:55;3.50;;;2.58;;
22160;SDS011;49035;48.812;11.762;2023-04-25T11:34:23;4.40;;;2.72;;
22160;SDS011;49035;48.812;11.762;2023-04-25T11:36:49;4.97;;;2.67;;
22160;SDS011;49035;48.812;11.762;2023-04-25T11:39:17;3.58;;;2.53;;
22160;SDS011;49035;48.812;11.762;2023-04-25T11:41:44;5.78;;;2.60;;
22160;SDS011;49035;48.812;11.762;2023-04-25T11:44:09;3.40;;;2.40;;
22160;SDS011;49035;48.812;11.762;2023-04-25T11:46:35;3.25;;;2.70;;
22160;SDS011;49035;48.812;11.762;2023-04-25T11:49:01;3.05;;;2.65;;
22160;SDS011;49035;48.812;11.762;2023-04-25T11:51:27;2.92;;;2.58;;
22160;SDS011;49035;48.812;11.762;2023-04-25T11:53:52;1.83;;;1.73;;
22160;SDS011;49035;48.812;11.762;2023-04-25T11:56:18;3.70;;;2.30;;
22160;SDS011;49035;48.812;11.762;2023-04-25T11:59:01;4.03;;;2.42;;
22160;SDS011;49035;48.812;11.762;2023-04-25T12:06:58;3.13;;;2.50;;
22160;SDS011;49035;48.812;11.762;2023-04-25T12:09:32;3.28;;;2.42;;
22160;SDS011;49035;48.812;11.762;2023-04-25T12:11:59;2.90;;;2.45;;
22160;SDS011;49035;48.812;11.762;2023-04-25T12:14:31;2.45;;;2.25;;
22160;SDS011;49035;48.812;11.762;2023-04-25T12:16:59;3.20;;;2.42;;
22160;SDS011;49035;48.812;11.762;2023-04-25T12:19:26;5.22;;;3.15;;
22160;SDS011;49035;48.812;11.762;2023-04-25T12:21:58;3.97;;;2.80;;
22160;SDS011;49035;48.812;11.762;2023-04-25T12:24:25;5.38;;;2.40;;
22160;SDS011;49035;48.812;11.762;2023-04-25T12:26:53;2.47;;;2.22;;
22160;SDS011;49035;48.812;11.762;2023-04-25T12:29:23;5.95;;;2.63;;
22160;SDS011;49035;48.812;11.762;2023-04-25T12:31:50;3.40;;;2.40;;
22160;SDS011;49035;48.812;11.762;2023-04-25T12:34:17;3.55;;;2.63;;
22160;SDS011;49035;48.812;11.762;2023-04-25T12:36:43;3.70;;;2.40;;
22160;SDS011;49035;48.812;11.762;2023-04-25T12:39:13;5.13;;;2.80;;
22160;SDS011;49035;48.812;11.762;2023-04-25T12:41:40;2.78;;;2.42;;
22160;SDS011;49035;48.812;11.762;2023-04-25T12:44:06;3.53;;;2.25;;
22160;SDS011;49035;48.812;11.762;2023-04-25T12:46:31;2.47;;;2.20;;
22160;SDS011;49035;48.812;11.762;2023-04-25T12:48:57;2.47;;;2.00;;
22160;SDS011;49035;48.812;11.762;2023-04-25T12:51:22;2.75;;;2.13;;
22160;SDS011;49035;48.812;11.762;2023-04-25T12:53:50;3.03;;;2.05;;
22160;SDS011;49035;48.812;11.762;2023-04-25T12:56:16;2.65;;;2.17;;
22160;SDS011;49035;48.812;11.762;2023-04-25T12:58:42;3.67;;;2.25;;
22160;SDS011;49035;48.812;11.762;2023-04-25T13:01:09;4.93;;;2.45;;
22160;SDS011;49035;48.812;11.762;2023-04-25T13:03:34;6.03;;;2.45;;
22160;SDS011;49035;48.812;11.762;2023-04-25T13:06:00;3.15;;;2.20;;
22160;SDS011;49035;48.812;11.762;2023-04-25T13:08:26;2.85;;;2.10;;
22160;SDS011;49035;48.812;11.762;2023-04-25T13:10:51;3.33;;;2.90;;
22160;SDS011;49035;48.812;11.762;2023-04-25T13:13:17;5.07;;;2.92;;
22160;SDS011;49035;48.812;11.762;2023-04-25T13:15:43;3.10;;;2.63;;
22160;SDS011;49035;48.812;11.762;2023-04-25T13:18:08;2.60;;;2.40;;
22160;SDS011;49035;48.812;11.762;2023-04-25T13:20:34;3.95;;;2.60;;
22160;SDS011;49035;48.812;11.762;2023-04-25T13:23:00;4.18;;;2.95;;
22160;SDS011;49035;48.812;11.762;2023-04-25T13:25:26;2.53;;;2.33;;
22160;SDS011;49035;48.812;11.762;2023-04-25T13:27:51;4.95;;;2.70;;
22160;SDS011;49035;48.812;11.762;2023-04-25T13:30:17;3.22;;;2.92;;
22160;SDS011;49035;48.812;11.762;2023-04-25T13:32:43;8.60;;;3.35;;
22160;SDS011;49035;48.812;11.762;2023-04-25T13:35:09;3.35;;;2.70;;
22160;SDS011;49035;48.812;11.762;2023-04-25T13:37:37;4.13;;;2.75;;
22160;SDS011;49035;48.812;11.762;2023-04-25T13:40:04;4.85;;;2.72;;
22160;SDS011;49035;48.812;11.762;2023-04-25T13:42:34;3.08;;;2.65;;
22160;SDS011;49035;48.812;11.762;2023-04-25T13:45:01;4.47;;;2.70;;
22160;SDS011;49035;48.812;11.762;2023-04-25T13:47:27;3.58;;;2.58;;
22160;SDS011;49035;48.812;11.762;2023-04-25T13:49:53;3.10;;;2.70;;
22160;SDS011;49035;48.812;11.762;2023-04-25T13:52:19;4.50;;;2.80;;
22160;SDS011;49035;48.812;11.762;2023-04-25T13:54:45;3.40;;;2.70;;
22160;SDS011;49035;48.812;11.762;2023-04-25T13:57:11;5.18;;;2.88;;
22160;SDS011;49035;48.812;11.762;2023-04-25T13:59:39;4.32;;;3.00;;
22160;SDS011;49035;48.812;11.762;2023-04-25T14:02:06;6.40;;;2.88;;
22160;SDS011;49035;48.812;11.762;2023-04-25T14:04:32;3.75;;;3.03;;
22160;SDS011;49035;48.812;11.762;2023-04-25T14:06:58;4.32;;;2.83;;
22160;SDS011;49035;48.812;11.762;2023-04-25T14:09:23;5.70;;;3.47;;
22160;SDS011;49035;48.812;11.762;2023-04-25T14:11:50;5.75;;;3.17;;
22160;SDS011;49035;48.812;11.762;2023-04-25T14:14:20;3.85;;;2.97;;
22160;SDS011;49035;48.812;11.762;2023-04-25T14:16:46;4.78;;;3.33;;
22160;SDS011;49035;48.812;11.762;2023-04-25T14:19:13;4.25;;;2.70;;
22160;SDS011;49035;48.812;11.762;2023-04-25T14:21:39;5.70;;;3.08;;
22160;SDS011;49035;48.812;11.762;2023-04-25T14:24:05;3.65;;;2.60;;
22160;SDS011;49035;48.812;11.762;2023-04-25T14:26:31;3.72;;;2.50;;
22160;SDS011;49035;48.812;11.762;2023-04-25T14:28:58;5.50;;;2.30;;
22160;SDS011;49035;48.812;11.762;2023-04-25T14:31:24;2.45;;;1.92;;
22160;SDS011;49035;48.812;11.762;2023-04-25T14:33:49;5.40;;;2.17;;
22160;SDS011;49035;48.812;11.762;2023-04-25T14:36:15;3.42;;;2.20;;
22160;SDS011;49035;48.812;11.762;2023-04-25T14:38:41;4.10;;;2.75;;
22160;SDS011;49035;48.812;11.762;2023-04-25T14:41:06;3.90;;;1.98;;
22160;SDS011;49035;48.812;11.762;2023-04-25T14:43:32;5.03;;;2.15;;
22160;SDS011;49035;48.812;11.762;2023-04-25T14:45:58;4.05;;;1.70;;
22160;SDS011;49035;48.812;11.762;2023-04-25T14:48:23;3.22;;;1.65;;
22160;SDS011;49035;48.812;11.762;2023-04-25T14:50:49;2.70;;;1.83;;
22160;SDS011;49035;48.812;11.762;2023-04-25T14:53:15;2.83;;;1.63;;
22160;SDS011;49035;48.812;11.762;2023-04-25T14:55:40;3.55;;;1.90;;
22160;SDS011;49035;48.812;11.762;2023-04-25T14:58:06;3.67;;;1.77;;
22160;SDS011;49035;48.812;11.762;2023-04-25T15:00:32;4.70;;;1.50;;
22160;SDS011;49035;48.812;11.762;2023-04-25T15:02:58;2.78;;;1.35;;